createdAt,value
2023-03-04T00:05:43.042Z,37.03
2023-03-04T00:15:47.673Z,42.63
2023-03-04T00:25:50.779Z,37.00
2023-03-04T00:35:55.638Z,36.47
2023-03-04T00:45:58.548Z,35.17
2023-03-04T00:56:03.132Z,37.13
2023-03-04T01:06:08.703Z,33.73
2023-03-04T01:16:13.259Z,34.93
2023-03-04T01:26:18.332Z,34.37
2023-03-04T01:36:24.808Z,31.03
2023-03-04T01:46:29.888Z,31.73
2023-03-04T01:56:38.856Z,28.47
2023-03-04T02:06:44.278Z,25.35
2023-03-04T02:16:49.733Z,22.90
2023-03-04T02:26:54.284Z,24.27
2023-03-04T02:36:58.685Z,25.07
2023-03-04T02:47:06.732Z,24.03
2023-03-04T02:57:12.449Z,23.80
2023-03-04T03:07:20.072Z,23.83
2023-03-04T03:17:27.517Z,21.00
2023-03-04T03:27:32.731Z,21.23
2023-03-04T03:37:37.501Z,19.20
2023-03-04T03:47:41.788Z,20.63
2023-03-04T03:57:45.914Z,17.70
2023-03-04T04:07:53.013Z,17.13
2023-03-04T04:18:00.425Z,16.60
2023-03-04T04:28:24.881Z,16.50
2023-03-04T04:38:28.429Z,14.83
2023-03-04T04:48:36.258Z,14.97
2023-03-04T04:58:40.149Z,13.30
2023-03-04T05:08:44.525Z,11.90
2023-03-04T05:18:49.601Z,12.00
2023-03-04T05:28:54.548Z,11.43
2023-03-04T05:38:59.180Z,9.47
2023-03-04T05:49:03.899Z,11.13
2023-03-04T05:59:06.908Z,11.40
2023-03-04T06:09:16.886Z,10.83
2023-03-04T06:19:21.722Z,10.53
2023-03-04T06:39:56.345Z,9.30
2023-03-04T06:50:03.286Z,9.17
2023-03-04T07:00:07.721Z,7.33
2023-03-04T07:10:13.093Z,7.10
2023-03-04T07:20:16.208Z,5.93
2023-03-04T07:30:23.133Z,6.83
2023-03-04T07:40:26.296Z,5.33
2023-03-04T07:50:31.235Z,5.40
2023-03-04T08:00:34.453Z,6.33
2023-03-04T08:10:40.038Z,5.93
2023-03-04T08:31:11.155Z,4.13
2023-03-04T08:41:16.877Z,5.07
2023-03-04T08:51:22.066Z,4.17
2023-03-04T09:01:25.354Z,4.33
2023-03-04T09:11:29.815Z,4.30
2023-03-04T09:21:32.877Z,5.10
2023-03-04T09:31:37.280Z,4.30
2023-03-04T09:41:44.348Z,2.70
2023-03-04T09:51:58.061Z,3.73
2023-03-04T10:02:04.369Z,3.40
2023-03-04T10:12:14.492Z,3.30
2023-03-04T10:22:23.081Z,2.97
2023-03-04T10:32:27.167Z,1.70
2023-03-04T10:42:38.010Z,1.97
2023-03-04T10:52:50.464Z,2.20
2023-03-04T11:02:53.562Z,3.83
2023-03-04T11:13:02.379Z,3.03
2023-03-04T11:23:11.581Z,2.80
2023-03-04T11:33:24.541Z,2.97
2023-03-04T11:43:35.440Z,3.50
2023-03-04T11:53:49.101Z,4.40
2023-03-04T12:04:27.679Z,5.00
2023-03-04T12:14:42.402Z,3.73
2023-03-04T12:25:04.184Z,3.20
2023-03-04T12:35:25.449Z,2.50
2023-03-04T12:45:34.102Z,2.03
2023-03-04T12:55:41.336Z,4.03
2023-03-04T13:06:04.385Z,2.57
2023-03-04T13:16:33.294Z,1.50
2023-03-04T13:26:37.680Z,1.80
2023-03-04T13:37:01.061Z,1.53
2023-03-04T13:47:11.538Z,1.37
2023-03-04T13:57:21.315Z,1.77
2023-03-04T14:17:37.216Z,0.90
2023-03-04T14:27:40.516Z,1.20
2023-03-04T14:48:23.716Z,1.33
2023-03-04T14:58:30.278Z,1.20
2023-03-04T15:08:37.077Z,1.60
2023-03-04T15:18:56.507Z,1.20
2023-03-04T15:29:01.047Z,1.97
2023-03-04T15:39:05.981Z,1.43
2023-03-04T15:49:10.171Z,1.30
2023-03-04T15:59:16.819Z,1.10
2023-03-04T16:09:22.104Z,2.13
2023-03-04T16:19:30.579Z,1.63
2023-03-04T16:29:34.238Z,2.00
2023-03-04T16:39:41.669Z,2.00
2023-03-04T16:49:44.291Z,1.83
2023-03-04T16:59:49.135Z,1.80
2023-03-04T17:09:52.513Z,1.80
2023-03-04T17:19:57.457Z,1.83
2023-03-04T17:30:01.284Z,2.10
2023-03-04T17:40:09.226Z,2.60
2023-03-04T17:50:13.824Z,2.90
2023-03-04T18:00:21.000Z,3.90
2023-03-04T18:10:23.866Z,4.50
2023-03-04T18:20:28.346Z,6.70
2023-03-04T18:30:31.040Z,5.80
2023-03-04T18:40:35.464Z,6.00
2023-03-04T18:50:39.163Z,6.60
2023-03-04T19:00:44.159Z,5.80
2023-03-04T19:10:48.210Z,6.00
2023-03-04T19:20:54.085Z,7.00
2023-03-04T19:30:59.477Z,8.30
2023-03-04T19:41:11.656Z,9.00
2023-03-04T19:51:16.064Z,5.07
2023-03-04T20:01:28.258Z,4.67
2023-03-04T20:11:32.274Z,4.10
2023-03-04T20:21:37.340Z,3.47
2023-03-04T20:31:41.871Z,2.40
2023-03-04T20:41:46.553Z,2.53
2023-03-04T20:51:50.567Z,2.50
2023-03-04T21:01:55.617Z,2.27
2023-03-04T21:12:01.482Z,2.13
2023-03-04T21:22:06.288Z,1.87
2023-03-04T21:32:23.722Z,2.00
2023-03-04T21:42:30.352Z,1.60
2023-03-04T21:52:34.014Z,2.00
2023-03-04T22:02:38.902Z,2.77
2023-03-04T22:12:42.098Z,2.10
2023-03-04T22:22:47.101Z,3.33
2023-03-04T22:32:51.215Z,3.17
2023-03-04T22:42:57.286Z,2.00
2023-03-04T22:53:02.129Z,2.00
2023-03-04T23:03:08.497Z,2.57
2023-03-04T23:13:35.118Z,1.95
2023-03-04T23:34:06.932Z,1.87
2023-03-04T23:44:12.329Z,1.90
2023-03-04T23:54:16.435Z,1.73
